Impacts TAF Board
For situational awareness. Not to be used for flight planning purposes.
IDs:

KYKM - Yakima Air Term/McAl, WA, US

Issued at 2332 UTC 05 Dec 2019
Updated at 0114 UTC 06 Dec 2019
Potential Impact None Slight Moderate High
Time0053Z 06/02Z 06/03Z 06/04Z 06/05Z 06/06Z 06/07Z 06/08Z 06/09Z 06/10Z 06/11Z 06/12Z 06/13Z 06/14Z>>
Type OBS PRVL
  [TEMP]  
PRVL
  [TEMP]  
PRVL PRVL PRVL PRVL PRVL PRVL PRVL PRVL PRVL PRVL PRVL
VIS 5 4 4 4 4 4 2 2 2 2 2 2 2 2
CIG 25 18
  [21]  
18
  [21]  
18 18 18 12 12 12 12 12 12 12 12
Cover BKN OVC
  [OVC]  
OVC
  [OVC]  
OVC OVC OVC OVC OVC OVC OVC OVC OVC OVC OVC
FltCat MVFR MVFR
  [MVFR]  
MVFR
  [MVFR]  
MVFR MVFR MVFR IFR IFR IFR IFR IFR IFR IFR IFR
WX HZ BR
  [--]  
BR
  [--]  
BR BR BR BR BR BR BR BR BR BR BR
WDir VRB VRB
[VRB]
VRB
[VRB]
VRB VRB VRB VRB VRB VRB VRB VRB VRB VRB VRB
WSpd 0 3
  [3]  
3
  [3]  
3 3 3 3 3 3 3 3 3 3 3
WGst -- --
  [--]  
--
  [--]  
-- -- -- -- -- -- -- -- -- -- --
Raw TAF
KYKM 052332Z 0600/0624 VRB03KT 4SM BR OVC018
  TEMPO 0600/0604 OVC021
  FM060700 VRB03KT 2SM BR OVC012
  FM061900 VRB03KT 5SM BR OVC025


Raw METAR
KYKM 060053Z 00000KT 5SM HZ SCT016 BKN025 04/01 A3014 RMK AO2 SLP216 T00390006
KYKM 052353Z 00000KT 4SM HZ BKN019 04/01 A3012 RMK AO2 SLP211 T00440006 10044 20011 50002
KYKM 052253Z 00000KT 4SM HZ BKN018 04/01 A3013 RMK AO2 SLP212 T00390006

METAR Board
Radar Display
Forecast Discussion
For situational awareness. Not to be used for flight planning purposes.